createdAt,value
2023-03-02T00:02:24.906Z,0.54
2023-03-02T00:05:29.709Z,0.53
2023-03-02T00:08:34.801Z,0.49
2023-03-02T00:11:39.129Z,0.51
2023-03-02T00:14:42.873Z,0.48
2023-03-02T00:17:46.966Z,0.52
2023-03-02T00:20:50.699Z,0.51
2023-03-02T00:23:54.941Z,0.49
2023-03-02T00:26:58.728Z,0.46
2023-03-02T00:30:04.185Z,0.40
2023-03-02T00:33:08.708Z,0.40
2023-03-02T00:36:20.553Z,0.33
2023-03-02T00:39:24.755Z,0.31
2023-03-02T00:42:28.973Z,0.30
2023-03-02T00:45:33.236Z,0.28
2023-03-02T00:48:37.139Z,0.23
2023-03-02T00:51:41.235Z,0.24
2023-03-02T00:54:45.044Z,0.21
2023-03-02T00:57:55.134Z,0.24
2023-03-02T01:00:59.463Z,0.28
2023-03-02T01:04:03.698Z,0.39
2023-03-02T01:07:14.763Z,0.36
2023-03-02T01:10:22.158Z,0.30
2023-03-02T01:13:26.418Z,0.32
2023-03-02T01:16:30.783Z,0.33
2023-03-02T01:19:35.358Z,0.33
2023-03-02T01:22:39.095Z,0.37
2023-03-02T01:25:43.388Z,0.44
2023-03-02T01:28:48.988Z,0.44
2023-03-02T01:31:53.910Z,0.38
2023-03-02T01:34:57.989Z,0.30
2023-03-02T01:38:02.095Z,0.29
2023-03-02T01:41:31.558Z,0.27
2023-03-02T01:44:57.113Z,0.25
2023-03-02T01:48:01.184Z,0.21
2023-03-02T01:51:07.084Z,0.23
2023-03-02T01:54:17.137Z,0.11
2023-03-02T01:57:25.511Z,0.12
2023-03-02T02:00:33.407Z,0.08
2023-03-02T02:03:37.326Z,0.07
2023-03-02T02:06:47.864Z,0.03
2023-03-02T02:09:52.786Z,0.11
2023-03-02T02:12:56.829Z,0.05
2023-03-02T02:16:00.780Z,-0.05
2023-03-02T02:19:15.311Z,-0.04
2023-03-02T02:22:36.413Z,-0.08
2023-03-02T02:26:06.368Z,-0.12
2023-03-02T02:29:30.275Z,-0.14
2023-03-02T02:32:39.015Z,-0.18
2023-03-02T02:35:46.487Z,-0.20
2023-03-02T02:38:54.574Z,-0.18
2023-03-02T02:42:02.846Z,-0.23
2023-03-02T02:45:26.388Z,-0.29
2023-03-02T02:48:32.302Z,-0.31
2023-03-02T02:51:36.945Z,-0.32
2023-03-02T02:54:43.605Z,-0.34
2023-03-02T02:57:47.917Z,-0.31
2023-03-02T03:00:53.851Z,-0.34
2023-03-02T03:04:02.219Z,-0.39
2023-03-02T03:07:06.657Z,-0.50
2023-03-02T03:10:25.881Z,-0.40
2023-03-02T03:13:30.325Z,-0.31
2023-03-02T03:16:35.623Z,-0.31
2023-03-02T03:19:42.639Z,-0.30
2023-03-02T03:22:46.550Z,-0.27
2023-03-02T03:25:50.762Z,-0.28
2023-03-02T03:28:57.235Z,-0.25
2023-03-02T03:32:03.451Z,-0.23
2023-03-02T03:35:11.458Z,-0.21
2023-03-02T03:38:17.062Z,-0.29
2023-03-02T03:41:21.330Z,-0.27
2023-03-02T03:44:25.334Z,-0.35
2023-03-02T03:47:29.442Z,-0.40
2023-03-02T03:50:33.580Z,-0.36
2023-03-02T03:53:38.048Z,-0.36
2023-03-02T03:56:45.091Z,-0.40
2023-03-02T03:59:49.272Z,-0.44
2023-03-02T04:02:53.579Z,-0.40
2023-03-02T04:05:57.814Z,-0.42
2023-03-02T04:09:05.076Z,-0.46
2023-03-02T04:12:09.981Z,-0.50
2023-03-02T04:15:17.092Z,-0.45
2023-03-02T04:18:20.992Z,-0.51
2023-03-02T04:21:25.997Z,-0.56
2023-03-02T04:24:30.017Z,-0.57
2023-03-02T04:27:34.270Z,-0.60
2023-03-02T04:30:38.745Z,-0.62
2023-03-02T04:33:43.003Z,-0.61
2023-03-02T04:36:47.408Z,-0.66
2023-03-02T04:39:52.727Z,-0.66
2023-03-02T04:42:57.000Z,-0.69
2023-03-02T04:46:01.349Z,-0.73
2023-03-02T04:49:05.629Z,-0.71
2023-03-02T04:52:09.685Z,-0.71
2023-03-02T04:55:19.953Z,-0.75
2023-03-02T04:58:24.175Z,-0.74
2023-03-02T05:01:28.412Z,-0.72
2023-03-02T05:04:33.160Z,-0.73
2023-03-02T05:07:37.635Z,-0.78
2023-03-02T05:10:41.507Z,-0.75
2023-03-02T05:13:45.153Z,-0.88
2023-03-02T05:16:49.050Z,-0.88
2023-03-02T05:19:52.965Z,-0.92
2023-03-02T05:23:00.849Z,-0.89
2023-03-02T05:26:04.857Z,-0.94
2023-03-02T05:29:08.901Z,-0.98
2023-03-02T05:32:12.764Z,-1.03
2023-03-02T05:35:17.452Z,-1.00
2023-03-02T05:38:21.652Z,-1.05
2023-03-02T05:41:26.917Z,-1.06
2023-03-02T05:44:30.973Z,-1.05
2023-03-02T05:47:35.214Z,-1.08
2023-03-02T05:50:39.824Z,-1.12
2023-03-02T05:53:43.925Z,-1.10
2023-03-02T05:56:50.221Z,-1.14
2023-03-02T05:59:54.602Z,-1.13
2023-03-02T06:02:58.875Z,-1.15
2023-03-02T06:06:02.945Z,-1.19
2023-03-02T06:09:06.847Z,-1.15
2023-03-02T06:12:10.626Z,-1.16
2023-03-02T06:15:14.768Z,-1.13
2023-03-02T06:18:18.787Z,-1.12
2023-03-02T06:21:22.990Z,-1.18
2023-03-02T06:24:27.024Z,-1.09
2023-03-02T06:27:31.066Z,-1.01
2023-03-02T06:30:34.864Z,-0.92
2023-03-02T06:33:38.968Z,-0.97
2023-03-02T06:36:43.276Z,-0.89
2023-03-02T06:39:47.290Z,-0.88
2023-03-02T06:42:51.148Z,-0.82
2023-03-02T06:45:54.934Z,-0.82
2023-03-02T06:48:59.183Z,-0.74
2023-03-02T06:52:03.435Z,-0.77
2023-03-02T06:55:08.066Z,-0.70
2023-03-02T06:58:13.148Z,-0.65
2023-03-02T07:01:17.321Z,-0.60
2023-03-02T07:04:21.363Z,-0.54
2023-03-02T07:07:25.448Z,-0.46
2023-03-02T07:10:30.039Z,-0.40
2023-03-02T07:13:34.568Z,-0.26
2023-03-02T07:16:38.510Z,-0.17
2023-03-02T07:19:42.976Z,-0.12
2023-03-02T07:22:47.137Z,-0.04
2023-03-02T07:25:51.349Z,0.03
2023-03-02T07:28:55.794Z,0.09
2023-03-02T07:31:59.811Z,0.27
2023-03-02T07:35:07.465Z,0.30
2023-03-02T07:38:12.000Z,0.38
2023-03-02T07:41:16.957Z,0.52
2023-03-02T07:44:20.950Z,0.52
2023-03-02T07:47:28.346Z,0.64
2023-03-02T07:50:33.621Z,0.67
2023-03-02T07:53:37.643Z,0.81
2023-03-02T07:56:41.534Z,0.84
2023-03-02T07:59:52.369Z,0.93
2023-03-02T08:02:56.962Z,1.10
2023-03-02T08:06:06.951Z,1.26
2023-03-02T08:09:11.062Z,1.40
2023-03-02T08:12:15.174Z,1.91
2023-03-02T08:15:19.354Z,2.51
2023-03-02T08:18:23.164Z,3.02
2023-03-02T08:21:29.330Z,3.56
2023-03-02T08:24:33.125Z,3.82
2023-03-02T08:27:40.128Z,3.97
2023-03-02T08:30:44.176Z,4.02
2023-03-02T08:33:48.180Z,4.05
2023-03-02T08:36:53.284Z,3.96
2023-03-02T08:39:58.708Z,4.05
2023-03-02T08:43:02.757Z,4.31
2023-03-02T08:46:07.127Z,4.47
2023-03-02T08:49:11.521Z,4.55
2023-03-02T08:52:15.602Z,4.47
2023-03-02T08:55:19.502Z,4.42
2023-03-02T08:58:23.423Z,4.55
2023-03-02T09:01:30.656Z,4.64
2023-03-02T09:04:35.205Z,4.91
2023-03-02T09:07:39.574Z,5.08
2023-03-02T09:10:43.539Z,5.22
2023-03-02T09:13:48.103Z,5.03
2023-03-02T09:16:52.801Z,5.24
2023-03-02T09:19:56.993Z,5.44
2023-03-02T09:23:00.895Z,5.57
2023-03-02T09:26:05.662Z,5.27
2023-03-02T09:29:09.638Z,5.39
2023-03-02T09:32:15.854Z,5.44
2023-03-02T09:35:20.306Z,5.38
2023-03-02T09:38:24.544Z,5.51
2023-03-02T09:41:55.752Z,5.60
2023-03-02T09:45:15.022Z,5.48
2023-03-02T09:48:43.019Z,5.56
2023-03-02T09:52:20.990Z,5.49
2023-03-02T09:55:30.866Z,5.59
2023-03-02T09:58:39.254Z,5.64
2023-03-02T10:02:01.290Z,5.60
2023-03-02T10:05:13.119Z,5.38
2023-03-02T10:08:30.696Z,5.41
2023-03-02T10:12:17.011Z,5.45
2023-03-02T10:15:38.486Z,5.41
2023-03-02T10:18:51.741Z,5.51
2023-03-02T10:22:09.364Z,5.67
2023-03-02T10:25:36.634Z,5.69
2023-03-02T10:28:47.065Z,5.62
2023-03-02T10:31:59.085Z,5.67
2023-03-02T10:35:14.209Z,5.80
2023-03-02T10:38:21.000Z,5.81
2023-03-02T10:41:35.380Z,5.85
2023-03-02T10:44:48.859Z,5.90
2023-03-02T10:48:09.146Z,6.00
2023-03-02T10:51:22.692Z,6.07
2023-03-02T10:54:28.853Z,6.10
2023-03-02T10:57:39.433Z,6.10
2023-03-02T11:00:43.764Z,6.15
2023-03-02T11:03:59.229Z,6.24
2023-03-02T11:07:20.880Z,6.30
2023-03-02T11:10:31.296Z,6.43
2023-03-02T11:13:39.215Z,6.48
2023-03-02T11:16:43.633Z,6.69
2023-03-02T11:19:47.514Z,6.75
2023-03-02T11:23:10.374Z,6.73
2023-03-02T11:26:20.579Z,6.64
2023-03-02T11:29:44.251Z,6.81
2023-03-02T11:33:03.062Z,7.00
2023-03-02T11:36:28.706Z,6.88
2023-03-02T11:39:56.162Z,6.95
2023-03-02T11:43:04.878Z,7.13
2023-03-02T11:46:26.225Z,7.23
2023-03-02T11:49:42.234Z,7.29
2023-03-02T11:52:52.247Z,7.33
2023-03-02T11:55:56.320Z,7.36
2023-03-02T11:59:06.919Z,7.30
2023-03-02T12:02:13.438Z,7.46
2023-03-02T12:05:27.446Z,7.46
2023-03-02T12:08:34.594Z,7.46
2023-03-02T12:11:40.881Z,7.70
2023-03-02T12:14:45.031Z,7.92
2023-03-02T12:17:49.056Z,7.95
2023-03-02T12:21:08.769Z,7.93
2023-03-02T12:24:29.204Z,7.79
2023-03-02T12:27:39.480Z,7.83
2023-03-02T12:30:43.618Z,7.89
2023-03-02T12:33:50.231Z,7.88
2023-03-02T12:36:59.747Z,7.92
2023-03-02T12:40:12.929Z,7.94
2023-03-02T12:43:38.058Z,8.08
2023-03-02T12:46:46.959Z,7.94
2023-03-02T12:49:56.743Z,7.98
2023-03-02T12:53:19.808Z,7.97
2023-03-02T12:56:26.042Z,8.03
2023-03-02T12:59:30.208Z,7.99
2023-03-02T13:02:36.299Z,7.99
2023-03-02T13:05:42.120Z,8.15
2023-03-02T13:08:49.645Z,8.10
2023-03-02T13:11:55.107Z,8.25
2023-03-02T13:14:59.910Z,8.18
2023-03-02T13:18:03.959Z,8.15
2023-03-02T13:21:13.087Z,8.24
2023-03-02T13:24:34.317Z,8.42
2023-03-02T13:27:38.713Z,8.42
2023-03-02T13:30:47.718Z,8.54
2023-03-02T13:33:54.178Z,8.60
2023-03-02T13:36:58.738Z,8.58
2023-03-02T13:40:07.102Z,8.54
2023-03-02T13:43:26.341Z,8.56
2023-03-02T13:46:36.001Z,8.63
2023-03-02T13:49:40.422Z,8.57
2023-03-02T13:52:44.800Z,8.63
2023-03-02T13:55:49.121Z,8.66
2023-03-02T13:58:53.181Z,8.73
2023-03-02T14:01:58.017Z,8.74
2023-03-02T14:05:02.353Z,8.64
2023-03-02T14:08:07.249Z,8.51
2023-03-02T14:11:11.864Z,8.57
2023-03-02T14:14:19.599Z,8.64
2023-03-02T14:17:25.868Z,8.67
2023-03-02T14:20:30.315Z,8.72
2023-03-02T14:23:34.774Z,8.63
2023-03-02T14:26:43.990Z,8.68
2023-03-02T14:29:48.578Z,8.80
2023-03-02T14:32:52.808Z,8.81
2023-03-02T14:35:58.691Z,8.78
2023-03-02T14:39:05.748Z,8.60
2023-03-02T14:42:13.924Z,8.61
2023-03-02T14:45:18.401Z,8.55
2023-03-02T14:48:22.379Z,8.56
2023-03-02T14:51:29.948Z,8.50
2023-03-02T14:54:42.706Z,8.49
2023-03-02T14:57:50.972Z,8.42
2023-03-02T15:00:55.144Z,8.31
2023-03-02T15:03:59.058Z,8.33
2023-03-02T15:07:03.533Z,8.24
2023-03-02T15:10:12.346Z,8.20
2023-03-02T15:13:16.456Z,8.20
2023-03-02T15:16:20.730Z,8.13
2023-03-02T15:19:24.696Z,8.16
2023-03-02T15:22:29.108Z,8.12
2023-03-02T15:25:33.511Z,8.16
2023-03-02T15:28:38.011Z,8.03
2023-03-02T15:31:41.775Z,8.01
2023-03-02T15:34:46.103Z,7.95
2023-03-02T15:37:50.318Z,7.80
2023-03-02T15:40:54.476Z,7.96
2023-03-02T15:43:58.150Z,7.88
2023-03-02T15:47:02.302Z,7.74
2023-03-02T15:50:06.410Z,7.83
2023-03-02T15:53:10.791Z,7.73
2023-03-02T15:56:16.834Z,7.69
2023-03-02T15:59:29.405Z,7.69
2023-03-02T16:02:33.542Z,7.60
2023-03-02T16:05:37.728Z,7.56
2023-03-02T16:08:41.991Z,7.53
2023-03-02T16:11:45.967Z,7.47
2023-03-02T16:14:50.269Z,7.49
2023-03-02T16:17:54.651Z,7.38
2023-03-02T16:20:59.853Z,7.32
2023-03-02T16:24:04.682Z,7.19
2023-03-02T16:27:09.193Z,7.25
2023-03-02T16:30:15.584Z,7.19
2023-03-02T16:33:19.522Z,7.17
2023-03-02T16:36:23.678Z,7.08
2023-03-02T16:39:28.209Z,7.06
2023-03-02T16:42:32.522Z,7.04
2023-03-02T16:45:37.073Z,7.00
2023-03-02T16:48:41.945Z,6.91
2023-03-02T16:51:46.006Z,6.88
2023-03-02T16:54:50.446Z,6.80
2023-03-02T16:57:55.016Z,6.75
2023-03-02T17:00:59.308Z,6.76
2023-03-02T17:04:05.833Z,6.63
2023-03-02T17:07:10.038Z,6.65
2023-03-02T17:10:17.478Z,6.49
2023-03-02T17:13:21.728Z,6.35
2023-03-02T17:16:26.433Z,6.18
2023-03-02T17:19:30.179Z,5.99
2023-03-02T17:22:34.119Z,5.84
2023-03-02T17:25:38.988Z,5.65
2023-03-02T17:28:43.458Z,5.52
2023-03-02T17:31:47.712Z,5.37
2023-03-02T17:34:51.867Z,5.32
2023-03-02T17:37:56.140Z,5.19
2023-03-02T17:41:08.288Z,5.03
2023-03-02T17:44:12.548Z,5.02
2023-03-02T17:47:17.131Z,4.92
2023-03-02T17:50:22.942Z,4.79
2023-03-02T17:53:27.198Z,4.70
2023-03-02T17:56:31.493Z,4.60
2023-03-02T17:59:36.108Z,4.48
2023-03-02T18:02:40.268Z,4.36
2023-03-02T18:05:44.286Z,4.31
2023-03-02T18:08:49.950Z,4.17
2023-03-02T18:11:54.120Z,4.11
2023-03-02T18:14:58.192Z,4.05
2023-03-02T18:18:02.372Z,4.00
2023-03-02T18:21:07.122Z,3.91
2023-03-02T18:24:11.746Z,3.84
2023-03-02T18:27:15.908Z,3.78
2023-03-02T18:30:21.008Z,3.79
2023-03-02T18:33:25.072Z,3.70
2023-03-02T18:36:30.003Z,3.65
2023-03-02T18:39:34.581Z,3.60
2023-03-02T18:42:38.822Z,3.44
2023-03-02T18:45:43.277Z,3.42
2023-03-02T18:48:47.508Z,3.37
2023-03-02T18:51:52.893Z,3.36
2023-03-02T18:54:57.844Z,3.15
2023-03-02T18:58:01.762Z,3.08
2023-03-02T19:01:05.928Z,3.06
2023-03-02T19:04:09.700Z,2.98
2023-03-02T19:07:13.702Z,2.95
2023-03-02T19:10:20.018Z,2.91
2023-03-02T19:13:25.585Z,2.93
2023-03-02T19:16:30.009Z,2.90
2023-03-02T19:19:35.506Z,2.86
2023-03-02T19:22:39.961Z,2.88
2023-03-02T19:25:45.181Z,2.82
2023-03-02T19:28:49.452Z,2.80
2023-03-02T19:31:53.848Z,2.83
2023-03-02T19:34:59.580Z,2.77
2023-03-02T19:38:03.946Z,2.65
2023-03-02T19:41:11.944Z,2.59
2023-03-02T19:44:17.252Z,2.58
2023-03-02T19:47:21.300Z,2.49
2023-03-02T19:50:27.633Z,2.44
2023-03-02T19:53:32.764Z,2.38
2023-03-02T19:56:40.029Z,2.39
2023-03-02T19:59:44.310Z,2.29
2023-03-02T20:02:48.732Z,2.24
2023-03-02T20:05:54.714Z,2.21
2023-03-02T20:09:06.185Z,2.15
2023-03-02T20:12:11.588Z,2.09
2023-03-02T20:15:16.955Z,2.01
2023-03-02T20:18:21.527Z,1.88
2023-03-02T20:21:28.360Z,1.84
2023-03-02T20:24:32.485Z,1.74
2023-03-02T20:27:36.827Z,1.65
2023-03-02T20:30:44.709Z,1.57
2023-03-02T20:33:52.202Z,1.57
2023-03-02T20:36:56.328Z,1.36
2023-03-02T20:40:01.034Z,1.30
2023-03-02T20:43:05.366Z,1.33
2023-03-02T20:46:16.866Z,1.35
2023-03-02T20:49:22.077Z,1.21
2023-03-02T20:52:27.324Z,1.21
2023-03-02T20:55:32.177Z,1.16
2023-03-02T20:58:41.025Z,1.21
2023-03-02T21:01:45.446Z,1.35
2023-03-02T21:04:49.882Z,1.33
2023-03-02T21:07:55.224Z,1.25
2023-03-02T21:10:59.356Z,1.36
2023-03-02T21:14:04.273Z,1.32
2023-03-02T21:17:09.926Z,1.31
2023-03-02T21:20:16.028Z,1.33
2023-03-02T21:23:22.046Z,1.44
2023-03-02T21:26:27.081Z,1.54
2023-03-02T21:29:31.429Z,1.53
2023-03-02T21:32:35.523Z,1.57
2023-03-02T21:35:39.791Z,1.52
2023-03-02T21:38:44.016Z,1.47
2023-03-02T21:41:48.222Z,1.47
2023-03-02T21:44:52.331Z,1.48
2023-03-02T21:47:56.399Z,1.34
2023-03-02T21:51:00.798Z,1.33
2023-03-02T21:54:05.280Z,1.31
2023-03-02T21:57:12.638Z,1.32
2023-03-02T22:00:38.663Z,1.34
2023-03-02T22:03:43.347Z,1.50
2023-03-02T22:06:47.656Z,1.46
2023-03-02T22:09:52.533Z,1.52
2023-03-02T22:13:25.327Z,1.53
2023-03-02T22:16:35.689Z,1.56
2023-03-02T22:19:43.243Z,1.56
2023-03-02T22:22:52.090Z,1.55
2023-03-02T22:26:05.472Z,1.60
2023-03-02T22:29:41.540Z,1.61
2023-03-02T22:32:45.474Z,1.58
2023-03-02T22:35:51.754Z,1.58
2023-03-02T22:39:01.148Z,1.70
2023-03-02T22:42:20.457Z,1.69
2023-03-02T22:45:24.648Z,1.64
2023-03-02T22:48:29.429Z,1.57
2023-03-02T22:51:34.178Z,1.59
2023-03-02T22:54:38.262Z,1.61
2023-03-02T22:57:42.913Z,1.70
2023-03-02T23:00:47.912Z,1.72
2023-03-02T23:04:01.611Z,1.74
2023-03-02T23:07:19.311Z,1.49
2023-03-02T23:10:23.743Z,1.49
2023-03-02T23:13:46.964Z,1.39
2023-03-02T23:16:56.940Z,1.39
2023-03-02T23:20:01.243Z,1.45
2023-03-02T23:23:05.254Z,1.34
2023-03-02T23:26:09.322Z,1.36
2023-03-02T23:29:13.382Z,1.37
2023-03-02T23:32:19.515Z,1.34
2023-03-02T23:35:23.912Z,1.36
2023-03-02T23:38:28.045Z,1.31
2023-03-02T23:41:32.158Z,1.27
2023-03-02T23:44:36.097Z,1.24
2023-03-02T23:47:40.209Z,1.19
2023-03-02T23:50:44.855Z,1.10
2023-03-02T23:53:48.842Z,1.21
2023-03-02T23:56:52.629Z,1.25
2023-03-02T23:59:56.803Z,1.32
